sensor_id;sensor_type;location;lat;lon;timestamp;pressure;altitude;pressure_sealevel;temperature;humidity
12963;BME280;6546;49.882;8.666;2023-03-22T00:01:11;99821.00;;;11.58;68.70
12963;BME280;6546;49.882;8.666;2023-03-22T00:03:38;99819.03;;;11.60;68.43
12963;BME280;6546;49.882;8.666;2023-03-22T00:06:06;99817.44;;;11.59;68.54
12963;BME280;6546;49.882;8.666;2023-03-22T00:08:33;99820.66;;;11.62;68.32
12963;BME280;6546;49.882;8.666;2023-03-22T00:11:01;99812.25;;;11.59;68.58
12963;BME280;6546;49.882;8.666;2023-03-22T00:13:29;99808.06;;;11.58;70.62
12963;BME280;6546;49.882;8.666;2023-03-22T00:15:56;99804.75;;;11.65;70.74
12963;BME280;6546;49.882;8.666;2023-03-22T00:18:24;99797.72;;;11.73;71.23
12963;BME280;6546;49.882;8.666;2023-03-22T00:20:52;99800.88;;;11.83;70.23
12963;BME280;6546;49.882;8.666;2023-03-22T00:23:20;99798.75;;;11.87;69.46
12963;BME280;6546;49.882;8.666;2023-03-22T00:25:47;99793.09;;;11.83;69.27
12963;BME280;6546;49.882;8.666;2023-03-22T00:28:16;99791.31;;;11.84;68.87
12963;BME280;6546;49.882;8.666;2023-03-22T00:30:50;99793.09;;;11.83;69.25
12963;BME280;6546;49.882;8.666;2023-03-22T00:33:17;99794.53;;;11.86;68.76
12963;BME280;6546;49.882;8.666;2023-03-22T00:35:47;99782.91;;;11.82;69.21
12963;BME280;6546;49.882;8.666;2023-03-22T00:38:14;99783.88;;;11.81;68.84
12963;BME280;6546;49.882;8.666;2023-03-22T00:40:41;99786.47;;;11.81;68.78
12963;BME280;6546;49.882;8.666;2023-03-22T00:43:08;99787.47;;;11.80;68.97
12963;BME280;6546;49.882;8.666;2023-03-22T00:45:36;99781.91;;;11.83;67.94
12963;BME280;6546;49.882;8.666;2023-03-22T00:48:06;99776.72;;;11.83;67.98
12963;BME280;6546;49.882;8.666;2023-03-22T00:50:32;99781.13;;;11.82;68.04
12963;BME280;6546;49.882;8.666;2023-03-22T00:52:59;99777.09;;;11.80;67.79
12963;BME280;6546;49.882;8.666;2023-03-22T00:55:26;99769.84;;;11.75;68.35
12963;BME280;6546;49.882;8.666;2023-03-22T00:57:53;99778.25;;;11.77;68.04
12963;BME280;6546;49.882;8.666;2023-03-22T01:00:19;99776.63;;;11.76;67.86
12963;BME280;6546;49.882;8.666;2023-03-22T01:02:47;99777.44;;;11.77;68.05
12963;BME280;6546;49.882;8.666;2023-03-22T01:05:17;99772.59;;;11.74;68.65
12963;BME280;6546;49.882;8.666;2023-03-22T01:07:49;99766.25;;;11.76;68.61
12963;BME280;6546;49.882;8.666;2023-03-22T01:10:16;99768.53;;;11.79;68.60
12963;BME280;6546;49.882;8.666;2023-03-22T01:12:44;99770.66;;;11.76;68.33
12963;BME280;6546;49.882;8.666;2023-03-22T01:15:11;99766.25;;;11.76;68.28
12963;BME280;6546;49.882;8.666;2023-03-22T01:17:38;99762.88;;;11.76;67.90
12963;BME280;6546;49.882;8.666;2023-03-22T01:20:08;99761.88;;;11.77;68.01
12963;BME280;6546;49.882;8.666;2023-03-22T01:22:35;99759.47;;;11.75;67.81
12963;BME280;6546;49.882;8.666;2023-03-22T01:25:02;99758.66;;;11.75;68.37
12963;BME280;6546;49.882;8.666;2023-03-22T01:27:29;99757.03;;;11.74;68.10
12963;BME280;6546;49.882;8.666;2023-03-22T01:29:56;99759.03;;;11.72;68.44
12963;BME280;6546;49.882;8.666;2023-03-22T01:32:23;99753.47;;;11.75;68.36
12963;BME280;6546;49.882;8.666;2023-03-22T01:34:49;99752.66;;;11.74;68.00
12963;BME280;6546;49.882;8.666;2023-03-22T01:37:18;99753.13;;;11.78;67.69
12963;BME280;6546;49.882;8.666;2023-03-22T01:39:46;99747.13;;;11.77;67.22
12963;BME280;6546;49.882;8.666;2023-03-22T01:42:13;99746.50;;;11.75;67.46
12963;BME280;6546;49.882;8.666;2023-03-22T01:44:41;99748.66;;;11.72;67.59
12963;BME280;6546;49.882;8.666;2023-03-22T01:47:09;99736.28;;;11.74;67.66
12963;BME280;6546;49.882;8.666;2023-03-22T01:49:39;99736.28;;;11.74;68.19
12963;BME280;6546;49.882;8.666;2023-03-22T01:52:10;99734.72;;;11.73;68.98
12963;BME280;6546;49.882;8.666;2023-03-22T01:54:42;99733.69;;;11.74;68.65
12963;BME280;6546;49.882;8.666;2023-03-22T01:57:09;99721.75;;;11.73;68.64
12963;BME280;6546;49.882;8.666;2023-03-22T01:59:37;99722.72;;;11.72;68.32
12963;BME280;6546;49.882;8.666;2023-03-22T02:02:05;99735.31;;;11.75;67.87
12963;BME280;6546;49.882;8.666;2023-03-22T02:04:34;99721.41;;;11.68;68.10
12963;BME280;6546;49.882;8.666;2023-03-22T02:07:05;99720.13;;;11.72;68.18
12963;BME280;6546;49.882;8.666;2023-03-22T02:09:34;99709.56;;;11.73;68.03
12963;BME280;6546;49.882;8.666;2023-03-22T02:12:12;99715.09;;;11.70;68.19
12963;BME280;6546;49.882;8.666;2023-03-22T02:14:51;99726.28;;;11.71;68.02
12963;BME280;6546;49.882;8.666;2023-03-22T02:17:28;99727.09;;;11.71;67.93
12963;BME280;6546;49.882;8.666;2023-03-22T02:20:25;99721.25;;;11.69;68.24
12963;BME280;6546;49.882;8.666;2023-03-22T02:23:27;99724.94;;;11.75;66.69
12963;BME280;6546;49.882;8.666;2023-03-22T02:29:12;99723.03;;;11.69;66.70
12963;BME280;6546;49.882;8.666;2023-03-22T02:35:21;99722.50;;;11.73;66.60
12963;BME280;6546;49.882;8.666;2023-03-22T02:38:14;99726.28;;;11.71;67.26
12963;BME280;6546;49.882;8.666;2023-03-22T02:40:52;99723.03;;;11.69;66.76
12963;BME280;6546;49.882;8.666;2023-03-22T02:43:29;99726.28;;;11.71;67.19
12963;BME280;6546;49.882;8.666;2023-03-22T02:46:06;99725.75;;;11.75;66.58
12963;BME280;6546;49.882;8.666;2023-03-22T02:48:39;99727.09;;;11.71;66.79
12963;BME280;6546;49.882;8.666;2023-03-22T02:51:11;99716.22;;;11.68;66.43
12963;BME280;6546;49.882;8.666;2023-03-22T02:53:44;99721.09;;;11.71;66.45
12963;BME280;6546;49.882;8.666;2023-03-22T02:56:15;99719.44;;;11.70;66.36
12963;BME280;6546;49.882;8.666;2023-03-22T02:58:47;99715.75;;;11.72;66.43
12963;BME280;6546;49.882;8.666;2023-03-22T03:01:20;99705.53;;;11.71;66.20
12963;BME280;6546;49.882;8.666;2023-03-22T03:03:48;99711.84;;;11.68;66.49
12963;BME280;6546;49.882;8.666;2023-03-22T03:06:19;99705.53;;;11.71;66.71
12963;BME280;6546;49.882;8.666;2023-03-22T03:08:50;99703.88;;;11.70;66.91
12963;BME280;6546;49.882;8.666;2023-03-22T03:11:19;99702.78;;;11.72;66.65
12963;BME280;6546;49.882;8.666;2023-03-22T03:13:46;99702.94;;;11.71;66.94
12963;BME280;6546;49.882;8.666;2023-03-22T03:16:15;99698.56;;;11.71;67.01
12963;BME280;6546;49.882;8.666;2023-03-22T03:18:49;99700.63;;;11.76;66.57
12963;BME280;6546;49.882;8.666;2023-03-22T03:21:26;99699.00;;;11.75;66.99
12963;BME280;6546;49.882;8.666;2023-03-22T03:24:13;99697.22;;;11.75;66.78
12963;BME280;6546;49.882;8.666;2023-03-22T03:26:50;99698.69;;;11.70;67.11
12963;BME280;6546;49.882;8.666;2023-03-22T03:29:25;99694.88;;;11.66;67.29
12963;BME280;6546;49.882;8.666;2023-03-22T03:31:57;99700.56;;;11.61;67.42
12963;BME280;6546;49.882;8.666;2023-03-22T03:34:30;99693.44;;;11.63;67.45
12963;BME280;6546;49.882;8.666;2023-03-22T03:37:01;99692.44;;;11.64;67.32
12963;BME280;6546;49.882;8.666;2023-03-22T03:39:33;99694.22;;;11.64;67.20
12963;BME280;6546;49.882;8.666;2023-03-22T03:42:06;99692.63;;;11.63;67.18
12963;BME280;6546;49.882;8.666;2023-03-22T03:44:37;99687.44;;;11.63;67.31
12963;BME280;6546;49.882;8.666;2023-03-22T03:47:05;99693.44;;;11.63;67.21
12963;BME280;6546;49.882;8.666;2023-03-22T03:49:33;99683.69;;;11.65;66.92
12963;BME280;6546;49.882;8.666;2023-03-22T03:52:00;99694.22;;;11.64;67.36
12963;BME280;6546;49.882;8.666;2023-03-22T03:54:29;99677.06;;;11.63;67.38
12963;BME280;6546;49.882;8.666;2023-03-22T03:56:55;99680.81;;;11.60;67.37
12963;BME280;6546;49.882;8.666;2023-03-22T03:59:23;99681.59;;;11.60;66.96
12963;BME280;6546;49.882;8.666;2023-03-22T04:01:50;99673.03;;;11.60;67.18
12963;BME280;6546;49.882;8.666;2023-03-22T04:04:18;99673.03;;;11.60;66.93
12963;BME280;6546;49.882;8.666;2023-03-22T04:06:50;99674.19;;;11.57;67.33
12963;BME280;6546;49.882;8.666;2023-03-22T04:09:18;99665.78;;;11.55;67.36
12963;BME280;6546;49.882;8.666;2023-03-22T04:11:45;99660.97;;;11.52;67.81
12963;BME280;6546;49.882;8.666;2023-03-22T04:14:11;99662.84;;;11.58;67.44
12963;BME280;6546;49.882;8.666;2023-03-22T04:16:40;99658.47;;;11.59;66.67
12963;BME280;6546;49.882;8.666;2023-03-22T04:19:06;99655.06;;;11.58;66.87
12963;BME280;6546;49.882;8.666;2023-03-22T04:21:33;99658.63;;;11.57;66.79
12963;BME280;6546;49.882;8.666;2023-03-22T04:24:00;99658.03;;;11.55;67.13
12963;BME280;6546;49.882;8.666;2023-03-22T04:26:27;99655.06;;;11.58;66.90
12963;BME280;6546;49.882;8.666;2023-03-22T04:28:54;99646.22;;;11.53;66.83
12963;BME280;6546;49.882;8.666;2023-03-22T04:31:21;99648.63;;;11.54;67.42
12963;BME280;6546;49.882;8.666;2023-03-22T04:33:49;99629.31;;;11.42;67.57
12963;BME280;6546;49.882;8.666;2023-03-22T04:36:19;99649.25;;;11.56;67.33
12963;BME280;6546;49.882;8.666;2023-03-22T04:38:45;99635.84;;;11.53;67.72
12963;BME280;6546;49.882;8.666;2023-03-22T04:41:12;99647.81;;;11.54;67.46
12963;BME280;6546;49.882;8.666;2023-03-22T04:43:39;99646.84;;;11.55;67.48
12963;BME280;6546;49.882;8.666;2023-03-22T04:46:06;99651.22;;;11.54;67.30
12963;BME280;6546;49.882;8.666;2023-03-22T04:48:34;99652.63;;;11.57;66.96
12963;BME280;6546;49.882;8.666;2023-03-22T04:51:03;99651.84;;;11.56;67.45
12963;BME280;6546;49.882;8.666;2023-03-22T04:53:30;99643.53;;;11.61;66.94
12963;BME280;6546;49.882;8.666;2023-03-22T04:55:57;99636.31;;;11.56;66.26
12963;BME280;6546;49.882;8.666;2023-03-22T04:58:24;99649.44;;;11.55;66.30
12963;BME280;6546;49.882;8.666;2023-03-22T05:00:52;99650.41;;;11.54;67.01
12963;BME280;6546;49.882;8.666;2023-03-22T05:03:19;99642.81;;;11.52;66.67
12963;BME280;6546;49.882;8.666;2023-03-22T05:05:50;99647.81;;;11.54;66.94
12963;BME280;6546;49.882;8.666;2023-03-22T05:08:18;99643.44;;;11.54;66.45
12963;BME280;6546;49.882;8.666;2023-03-22T05:10:46;99638.59;;;11.51;66.78
12963;BME280;6546;49.882;8.666;2023-03-22T05:13:12;99640.59;;;11.49;66.45
12963;BME280;6546;49.882;8.666;2023-03-22T05:15:39;99647.72;;;11.47;66.63
12963;BME280;6546;49.882;8.666;2023-03-22T05:18:07;99648.06;;;11.44;67.00
12963;BME280;6546;49.882;8.666;2023-03-22T05:20:33;99653.19;;;11.52;66.47
12963;BME280;6546;49.882;8.666;2023-03-22T05:23:00;99644.97;;;11.49;66.51
12963;BME280;6546;49.882;8.666;2023-03-22T05:25:30;99644.34;;;11.47;66.50
12963;BME280;6546;49.882;8.666;2023-03-22T05:27:56;99650.16;;;11.49;66.43
12963;BME280;6546;49.882;8.666;2023-03-22T05:30:26;99646.13;;;11.46;66.29
12963;BME280;6546;49.882;8.666;2023-03-22T05:32:56;99646.94;;;11.47;66.37
12963;BME280;6546;49.882;8.666;2023-03-22T05:35:24;99647.56;;;11.49;65.98
12963;BME280;6546;49.882;8.666;2023-03-22T05:37:51;99653.25;;;11.44;66.60
12963;BME280;6546;49.882;8.666;2023-03-22T05:40:17;99654.88;;;11.45;66.95
12963;BME280;6546;49.882;8.666;2023-03-22T05:42:45;99657.53;;;11.37;67.03
12963;BME280;6546;49.882;8.666;2023-03-22T05:45:12;99664.78;;;11.42;66.51
12963;BME280;6546;49.882;8.666;2023-03-22T05:47:39;99660.78;;;11.39;67.07
12963;BME280;6546;49.882;8.666;2023-03-22T05:50:07;99663.97;;;11.41;66.96
12963;BME280;6546;49.882;8.666;2023-03-22T05:52:34;99655.59;;;11.39;67.18
12963;BME280;6546;49.882;8.666;2023-03-22T05:55:01;99664.19;;;11.40;67.21
12963;BME280;6546;49.882;8.666;2023-03-22T05:57:30;99658.09;;;11.47;66.76
12963;BME280;6546;49.882;8.666;2023-03-22T05:59:58;99671.97;;;11.40;66.58
12963;BME280;6546;49.882;8.666;2023-03-22T06:02:26;99666.78;;;11.40;67.30
12963;BME280;6546;49.882;8.666;2023-03-22T06:04:52;99669.81;;;11.43;66.54
12963;BME280;6546;49.882;8.666;2023-03-22T06:07:19;99669.16;;;11.41;67.06
12963;BME280;6546;49.882;8.666;2023-03-22T06:09:46;99662.41;;;11.40;67.09
12963;BME280;6546;49.882;8.666;2023-03-22T06:12:14;99663.47;;;11.46;66.61
12963;BME280;6546;49.882;8.666;2023-03-22T06:14:41;99669.91;;;11.50;66.33
12963;BME280;6546;49.882;8.666;2023-03-22T06:17:09;99678.38;;;11.44;66.55
12963;BME280;6546;49.882;8.666;2023-03-22T06:19:36;99663.28;;;11.47;66.02
12963;BME280;6546;49.882;8.666;2023-03-22T06:22:02;99654.25;;;11.43;66.38
12963;BME280;6546;49.882;8.666;2023-03-22T06:24:29;99641.97;;;11.37;65.94
12963;BME280;6546;49.882;8.666;2023-03-22T06:26:56;99654.88;;;11.45;66.01
12963;BME280;6546;49.882;8.666;2023-03-22T06:29:23;99654.63;;;11.40;66.47
12963;BME280;6546;49.882;8.666;2023-03-22T06:31:49;99655.59;;;11.39;66.20
12963;BME280;6546;49.882;8.666;2023-03-22T06:34:18;99651.47;;;11.30;66.71
12963;BME280;6546;49.882;8.666;2023-03-22T06:36:45;99673.53;;;11.41;66.37
12963;BME280;6546;49.882;8.666;2023-03-22T06:39:12;99673.75;;;11.39;66.41
12963;BME280;6546;49.882;8.666;2023-03-22T06:41:39;99671.59;;;11.43;66.88
12963;BME280;6546;49.882;8.666;2023-03-22T06:44:06;99682.41;;;11.46;67.03
12963;BME280;6546;49.882;8.666;2023-03-22T06:46:32;99682.16;;;11.56;66.06
12963;BME280;6546;49.882;8.666;2023-03-22T06:49:02;99681.34;;;11.55;66.30
12963;BME280;6546;49.882;8.666;2023-03-22T06:51:31;99681.81;;;11.59;65.83
12963;BME280;6546;49.882;8.666;2023-03-22T06:53:57;99685.66;;;11.63;65.94
12963;BME280;6546;49.882;8.666;2023-03-22T06:56:24;99695.09;;;11.79;65.78
12963;BME280;6546;49.882;8.666;2023-03-22T06:58:51;99698.31;;;11.95;65.31
12963;BME280;6546;49.882;8.666;2023-03-22T07:01:18;99683.78;;;12.16;64.99
12963;BME280;6546;49.882;8.666;2023-03-22T07:03:45;99702.38;;;12.19;64.68
12963;BME280;6546;49.882;8.666;2023-03-22T07:06:12;99694.97;;;12.16;64.90
12963;BME280;6546;49.882;8.666;2023-03-22T07:08:40;99689.31;;;12.13;64.92
12963;BME280;6546;49.882;8.666;2023-03-22T07:11:07;99698.44;;;12.08;64.76
12963;BME280;6546;49.882;8.666;2023-03-22T07:13:36;99697.22;;;12.04;65.03
12963;BME280;6546;49.882;8.666;2023-03-22T07:16:04;99699.16;;;12.02;65.60
12963;BME280;6546;49.882;8.666;2023-03-22T07:18:30;99693.97;;;12.02;65.96
12963;BME280;6546;49.882;8.666;2023-03-22T07:20:57;99693.81;;;12.04;65.97
12963;BME280;6546;49.882;8.666;2023-03-22T07:23:24;99699.53;;;11.99;66.09
12963;BME280;6546;49.882;8.666;2023-03-22T07:25:52;99697.31;;;11.96;66.38
12963;BME280;6546;49.882;8.666;2023-03-22T07:28:20;99700.91;;;11.95;66.20
12963;BME280;6546;49.882;8.666;2023-03-22T07:30:47;99706.97;;;12.02;66.09
12963;BME280;6546;49.882;8.666;2023-03-22T07:33:13;99703.56;;;12.02;65.81
12963;BME280;6546;49.882;8.666;2023-03-22T07:35:40;99704.44;;;12.09;65.71
12963;BME280;6546;49.882;8.666;2023-03-22T07:38:07;99706.59;;;12.20;65.20
12963;BME280;6546;49.882;8.666;2023-03-22T07:40:33;99705.63;;;12.21;65.40
12963;BME280;6546;49.882;8.666;2023-03-22T07:43:01;99698.09;;;12.26;65.32
12963;BME280;6546;49.882;8.666;2023-03-22T07:45:27;99700.91;;;12.31;65.00
12963;BME280;6546;49.882;8.666;2023-03-22T07:47:54;99699.94;;;12.32;64.89
12963;BME280;6546;49.882;8.666;2023-03-22T07:50:21;99697.25;;;12.40;64.99
12963;BME280;6546;49.882;8.666;2023-03-22T07:52:48;99692.31;;;12.45;65.19
12963;BME280;6546;49.882;8.666;2023-03-22T07:55:14;99687.78;;;12.54;64.49
12963;BME280;6546;49.882;8.666;2023-03-22T07:57:41;99686.00;;;12.54;64.70
12963;BME280;6546;49.882;8.666;2023-03-22T08:00:09;99689.84;;;12.58;64.28
12963;BME280;6546;49.882;8.666;2023-03-22T08:02:36;99693.50;;;12.64;64.56
12963;BME280;6546;49.882;8.666;2023-03-22T08:05:05;99685.16;;;12.69;64.48
12963;BME280;6546;49.882;8.666;2023-03-22T08:07:31;99680.84;;;12.76;64.34
12963;BME280;6546;49.882;8.666;2023-03-22T08:09:58;99675.66;;;12.76;64.42
12963;BME280;6546;49.882;8.666;2023-03-22T08:12:25;99674.53;;;12.85;64.60
12963;BME280;6546;49.882;8.666;2023-03-22T08:14:52;99687.75;;;12.90;64.43
12963;BME280;6546;49.882;8.666;2023-03-22T08:17:20;99684.03;;;12.99;64.43
12963;BME280;6546;49.882;8.666;2023-03-22T08:19:47;99681.44;;;12.99;63.94
12963;BME280;6546;49.882;8.666;2023-03-22T08:22:14;99670.78;;;13.08;64.70
12963;BME280;6546;49.882;8.666;2023-03-22T08:24:41;99677.63;;;13.16;64.42
12963;BME280;6546;49.882;8.666;2023-03-22T08:27:07;99671.28;;;13.25;64.39
12963;BME280;6546;49.882;8.666;2023-03-22T08:29:34;99681.69;;;13.25;63.29
12963;BME280;6546;49.882;8.666;2023-03-22T08:32:01;99684.53;;;13.30;63.79
12963;BME280;6546;49.882;8.666;2023-03-22T08:34:35;99686.97;;;13.38;63.69
12963;BME280;6546;49.882;8.666;2023-03-22T08:37:03;99685.84;;;13.47;63.43
12963;BME280;6546;49.882;8.666;2023-03-22T08:39:29;99690.31;;;13.53;63.45
12963;BME280;6546;49.882;8.666;2023-03-22T08:41:56;99673.66;;;13.48;62.77
12963;BME280;6546;49.882;8.666;2023-03-22T08:44:23;99690.53;;;13.58;62.89
12963;BME280;6546;49.882;8.666;2023-03-22T08:46:50;99686.31;;;13.57;62.58
12963;BME280;6546;49.882;8.666;2023-03-22T08:49:16;99680.34;;;13.63;62.23
12963;BME280;6546;49.882;8.666;2023-03-22T08:51:44;99683.19;;;13.68;62.62
12963;BME280;6546;49.882;8.666;2023-03-22T08:54:11;99674.81;;;13.73;62.79
12963;BME280;6546;49.882;8.666;2023-03-22T08:56:38;99676.44;;;13.81;61.88
12963;BME280;6546;49.882;8.666;2023-03-22T08:59:08;99677.84;;;13.83;62.33
12963;BME280;6546;49.882;8.666;2023-03-22T09:01:35;99666.88;;;13.88;61.36
12963;BME280;6546;49.882;8.666;2023-03-22T09:04:03;99658.91;;;13.96;61.17
12963;BME280;6546;49.882;8.666;2023-03-22T09:06:30;99663.13;;;13.97;61.31
12963;BME280;6546;49.882;8.666;2023-03-22T09:08:58;99650.88;;;13.91;61.41
12963;BME280;6546;49.882;8.666;2023-03-22T09:11:25;99650.06;;;13.90;61.71
12963;BME280;6546;49.882;8.666;2023-03-22T09:13:51;99647.31;;;13.98;62.85
12963;BME280;6546;49.882;8.666;2023-03-22T09:16:18;99640.13;;;14.07;61.84
12963;BME280;6546;49.882;8.666;2023-03-22T09:18:44;99635.53;;;14.09;61.46
12963;BME280;6546;49.882;8.666;2023-03-22T09:21:11;99635.13;;;14.12;61.09
12963;BME280;6546;49.882;8.666;2023-03-22T09:23:38;99634.94;;;14.13;60.77
12963;BME280;6546;49.882;8.666;2023-03-22T09:26:08;99641.16;;;14.19;60.23
12963;BME280;6546;49.882;8.666;2023-03-22T09:28:39;99633.75;;;14.16;60.14
12963;BME280;6546;49.882;8.666;2023-03-22T09:31:14;99633.78;;;14.23;59.74
12963;BME280;6546;49.882;8.666;2023-03-22T09:33:41;99631.94;;;14.16;59.42
12963;BME280;6546;49.882;8.666;2023-03-22T09:36:09;99637.75;;;14.18;59.61
12963;BME280;6546;49.882;8.666;2023-03-22T09:38:37;99632.38;;;14.20;59.39
12963;BME280;6546;49.882;8.666;2023-03-22T09:41:05;99636.59;;;14.21;58.82
12963;BME280;6546;49.882;8.666;2023-03-22T09:43:36;99625.00;;;14.30;58.05
12963;BME280;6546;49.882;8.666;2023-03-22T09:46:05;99623.38;;;14.29;57.86
12963;BME280;6546;49.882;8.666;2023-03-22T09:48:35;99615.78;;;14.28;58.01
12963;BME280;6546;49.882;8.666;2023-03-22T09:51:06;99621.16;;;14.26;58.18
12963;BME280;6546;49.882;8.666;2023-03-22T09:53:40;99613.94;;;14.28;58.84
12963;BME280;6546;49.882;8.666;2023-03-22T09:56:12;99615.16;;;14.32;57.47
12963;BME280;6546;49.882;8.666;2023-03-22T09:58:45;99609.16;;;14.32;58.42
12963;BME280;6546;49.882;8.666;2023-03-22T10:01:25;99616.59;;;14.35;58.66
12963;BME280;6546;49.882;8.666;2023-03-22T10:04:27;99606.19;;;14.35;59.02
12963;BME280;6546;49.882;8.666;2023-03-22T10:07:02;99599.53;;;14.32;58.68
12963;BME280;6546;49.882;8.666;2023-03-22T10:09:36;99591.72;;;14.32;58.83
12963;BME280;6546;49.882;8.666;2023-03-22T10:12:15;99594.59;;;14.37;58.91
12963;BME280;6546;49.882;8.666;2023-03-22T10:14:50;99595.19;;;14.39;58.28
12963;BME280;6546;49.882;8.666;2023-03-22T10:17:25;99588.97;;;14.40;59.17
12963;BME280;6546;49.882;8.666;2023-03-22T10:19:56;99596.19;;;14.38;58.40
12963;BME280;6546;49.882;8.666;2023-03-22T10:22:27;99589.56;;;14.42;58.29
12963;BME280;6546;49.882;8.666;2023-03-22T10:24:56;99583.56;;;14.42;57.48
12963;BME280;6546;49.882;8.666;2023-03-22T10:27:25;99600.41;;;14.46;57.55
12963;BME280;6546;49.882;8.666;2023-03-22T10:29:56;99589.00;;;14.47;57.72
12963;BME280;6546;49.882;8.666;2023-03-22T10:32:29;99600.81;;;14.49;57.65
12963;BME280;6546;49.882;8.666;2023-03-22T10:34:57;99592.00;;;14.50;57.32
12963;BME280;6546;49.882;8.666;2023-03-22T10:37:28;99602.44;;;14.50;57.07
12963;BME280;6546;49.882;8.666;2023-03-22T10:39:59;99608.03;;;14.47;57.60
12963;BME280;6546;49.882;8.666;2023-03-22T10:42:31;99604.63;;;14.47;57.21
12963;BME280;6546;49.882;8.666;2023-03-22T10:45:04;99597.00;;;14.52;58.10
12963;BME280;6546;49.882;8.666;2023-03-22T10:47:34;99595.22;;;14.65;56.49
12963;BME280;6546;49.882;8.666;2023-03-22T10:50:06;99592.63;;;14.72;54.64
12963;BME280;6546;49.882;8.666;2023-03-22T10:52:40;99590.19;;;14.77;54.87
12963;BME280;6546;49.882;8.666;2023-03-22T10:55:10;99587.41;;;14.79;55.87
12963;BME280;6546;49.882;8.666;2023-03-22T10:57:37;99597.22;;;14.83;56.43
12963;BME280;6546;49.882;8.666;2023-03-22T11:00:15;99584.97;;;14.97;56.39
12963;BME280;6546;49.882;8.666;2023-03-22T11:02:50;99586.78;;;15.09;55.06
12963;BME280;6546;49.882;8.666;2023-03-22T11:05:22;99570.50;;;15.27;55.84
12963;BME280;6546;49.882;8.666;2023-03-22T11:07:49;99566.84;;;15.41;52.97
12963;BME280;6546;49.882;8.666;2023-03-22T11:10:24;99569.25;;;15.43;51.67
12963;BME280;6546;49.882;8.666;2023-03-22T11:12:54;99567.84;;;15.40;52.54
12963;BME280;6546;49.882;8.666;2023-03-22T11:15:26;99564.22;;;15.41;52.83
12963;BME280;6546;49.882;8.666;2023-03-22T11:17:58;99562.84;;;15.39;52.09
12963;BME280;6546;49.882;8.666;2023-03-22T11:20:26;99566.66;;;15.36;52.54
12963;BME280;6546;49.882;8.666;2023-03-22T11:22:53;99565.66;;;15.44;51.91
12963;BME280;6546;49.882;8.666;2023-03-22T11:25:26;99555.81;;;15.52;51.44
12963;BME280;6546;49.882;8.666;2023-03-22T11:27:55;99555.97;;;15.57;50.97
12963;BME280;6546;49.882;8.666;2023-03-22T11:30:25;99562.38;;;15.61;51.02
12963;BME280;6546;49.882;8.666;2023-03-22T11:33:00;99558.78;;;15.62;51.76
12963;BME280;6546;49.882;8.666;2023-03-22T11:35:29;99547.72;;;15.67;50.04
12963;BME280;6546;49.882;8.666;2023-03-22T11:37:56;99551.13;;;15.67;50.38
12963;BME280;6546;49.882;8.666;2023-03-22T11:40:28;99541.88;;;15.71;51.84
12963;BME280;6546;49.882;8.666;2023-03-22T11:43:01;99548.69;;;15.72;51.85
12963;BME280;6546;49.882;8.666;2023-03-22T11:45:35;99553.09;;;15.79;51.80
12963;BME280;6546;49.882;8.666;2023-03-22T11:48:06;99546.63;;;15.81;51.73
12963;BME280;6546;49.882;8.666;2023-03-22T11:50:37;99536.59;;;15.85;50.90
12963;BME280;6546;49.882;8.666;2023-03-22T11:53:09;99532.34;;;15.90;50.38
12963;BME280;6546;49.882;8.666;2023-03-22T11:55:37;99536.94;;;15.95;49.82
12963;BME280;6546;49.882;8.666;2023-03-22T11:58:22;99532.09;;;15.98;49.49
12963;BME280;6546;49.882;8.666;2023-03-22T12:00:52;99518.41;;;16.03;49.58
12963;BME280;6546;49.882;8.666;2023-03-22T12:03:22;99517.16;;;16.12;48.88
12963;BME280;6546;49.882;8.666;2023-03-22T12:05:51;99513.28;;;16.21;50.94
12963;BME280;6546;49.882;8.666;2023-03-22T12:08:24;99508.81;;;16.28;49.65
12963;BME280;6546;49.882;8.666;2023-03-22T12:10:55;99504.72;;;16.32;49.42
12963;BME280;6546;49.882;8.666;2023-03-22T12:13:27;99494.22;;;16.39;48.59
12963;BME280;6546;49.882;8.666;2023-03-22T12:16:04;99503.63;;;16.46;48.76
12963;BME280;6546;49.882;8.666;2023-03-22T12:18:35;99503.56;;;16.53;47.36
12963;BME280;6546;49.882;8.666;2023-03-22T12:21:04;99502.78;;;16.52;48.10
12963;BME280;6546;49.882;8.666;2023-03-22T12:23:32;99499.56;;;16.57;47.92
12963;BME280;6546;49.882;8.666;2023-03-22T12:26:04;99491.91;;;16.55;48.39
12963;BME280;6546;49.882;8.666;2023-03-22T12:28:34;99493.53;;;16.56;49.22
12963;BME280;6546;49.882;8.666;2023-03-22T12:31:10;99490.69;;;16.58;48.88
12963;BME280;6546;49.882;8.666;2023-03-22T12:33:43;99477.97;;;16.61;48.20
12963;BME280;6546;49.882;8.666;2023-03-22T12:36:15;99480.97;;;16.65;47.48
12963;BME280;6546;49.882;8.666;2023-03-22T12:38:45;99479.31;;;16.70;47.60
12963;BME280;6546;49.882;8.666;2023-03-22T12:41:18;99480.97;;;16.65;47.71
12963;BME280;6546;49.882;8.666;2023-03-22T12:43:52;99479.59;;;16.62;48.14
12963;BME280;6546;49.882;8.666;2023-03-22T12:46:24;99470.94;;;16.62;48.22
12963;BME280;6546;49.882;8.666;2023-03-22T12:48:54;99469.94;;;16.63;48.08
12963;BME280;6546;49.882;8.666;2023-03-22T12:51:23;99467.53;;;16.61;47.90
12963;BME280;6546;49.882;8.666;2023-03-22T12:53:51;99458.47;;;16.64;47.48
12963;BME280;6546;49.882;8.666;2023-03-22T12:56:20;99463.63;;;16.70;47.15
12963;BME280;6546;49.882;8.666;2023-03-22T12:58:53;99456.13;;;16.74;46.27
12963;BME280;6546;49.882;8.666;2023-03-22T13:01:28;99448.31;;;16.74;45.54
12963;BME280;6546;49.882;8.666;2023-03-22T13:03:57;99452.31;;;16.76;44.47
12963;BME280;6546;49.882;8.666;2023-03-22T13:06:30;99447.22;;;16.82;44.69
12963;BME280;6546;49.882;8.666;2023-03-22T13:09:13;99450.84;;;16.80;45.43
12963;BME280;6546;49.882;8.666;2023-03-22T13:11:42;99457.03;;;16.86;45.48
12963;BME280;6546;49.882;8.666;2023-03-22T13:14:11;99446.78;;;16.85;45.90
12963;BME280;6546;49.882;8.666;2023-03-22T13:16:58;99442.56;;;16.84;46.16
12963;BME280;6546;49.882;8.666;2023-03-22T13:19:33;99443.00;;;16.80;46.19
12963;BME280;6546;49.882;8.666;2023-03-22T13:22:17;99435.38;;;16.79;45.24
12963;BME280;6546;49.882;8.666;2023-03-22T13:24:57;99430.16;;;16.79;45.64
12963;BME280;6546;49.882;8.666;2023-03-22T13:27:33;99427.75;;;16.77;45.12
12963;BME280;6546;49.882;8.666;2023-03-22T13:30:02;99429.78;;;16.75;45.66